sensor_id;sensor_type;location;lat;lon;timestamp;P1;durP1;ratioP1;P2;durP2;ratioP2
20705;SDS011;10514;49.468;11.044;2023-03-01T00:02:19;22.30;;;8.80;;
20705;SDS011;10514;49.468;11.044;2023-03-01T00:04:45;14.97;;;8.83;;
20705;SDS011;10514;49.468;11.044;2023-03-01T00:07:11;14.67;;;9.07;;
20705;SDS011;10514;49.468;11.044;2023-03-01T00:09:37;16.83;;;9.20;;
20705;SDS011;10514;49.468;11.044;2023-03-01T00:12:03;22.27;;;10.30;;
20705;SDS011;10514;49.468;11.044;2023-03-01T00:14:29;15.80;;;9.87;;
20705;SDS011;10514;49.468;11.044;2023-03-01T00:16:56;18.07;;;9.93;;
20705;SDS011;10514;49.468;11.044;2023-03-01T00:19:22;18.20;;;10.30;;
20705;SDS011;10514;49.468;11.044;2023-03-01T00:21:48;16.37;;;9.53;;
20705;SDS011;10514;49.468;11.044;2023-03-01T00:24:14;19.97;;;9.63;;
20705;SDS011;10514;49.468;11.044;2023-03-01T00:26:40;19.07;;;10.37;;
20705;SDS011;10514;49.468;11.044;2023-03-01T00:29:06;19.63;;;10.13;;
20705;SDS011;10514;49.468;11.044;2023-03-01T00:31:32;19.43;;;9.40;;
20705;SDS011;10514;49.468;11.044;2023-03-01T00:34:00;14.93;;;8.97;;
20705;SDS011;10514;49.468;11.044;2023-03-01T00:36:27;19.13;;;10.10;;
20705;SDS011;10514;49.468;11.044;2023-03-01T00:38:55;18.03;;;10.10;;
20705;SDS011;10514;49.468;11.044;2023-03-01T00:41:21;14.90;;;9.23;;
20705;SDS011;10514;49.468;11.044;2023-03-01T00:43:48;17.93;;;10.03;;
20705;SDS011;10514;49.468;11.044;2023-03-01T00:46:16;21.97;;;9.07;;
20705;SDS011;10514;49.468;11.044;2023-03-01T00:48:42;19.17;;;9.60;;
20705;SDS011;10514;49.468;11.044;2023-03-01T00:51:10;15.63;;;9.57;;
20705;SDS011;10514;49.468;11.044;2023-03-01T00:53:36;21.17;;;11.17;;
20705;SDS011;10514;49.468;11.044;2023-03-01T00:56:03;19.03;;;9.70;;
20705;SDS011;10514;49.468;11.044;2023-03-01T00:58:29;17.93;;;9.27;;
20705;SDS011;10514;49.468;11.044;2023-03-01T01:00:55;18.30;;;9.77;;
20705;SDS011;10514;49.468;11.044;2023-03-01T01:03:21;22.23;;;11.13;;
20705;SDS011;10514;49.468;11.044;2023-03-01T01:05:49;18.87;;;10.07;;
20705;SDS011;10514;49.468;11.044;2023-03-01T01:08:15;22.80;;;10.80;;
20705;SDS011;10514;49.468;11.044;2023-03-01T01:10:43;19.47;;;10.30;;
20705;SDS011;10514;49.468;11.044;2023-03-01T01:13:09;17.53;;;9.73;;
20705;SDS011;10514;49.468;11.044;2023-03-01T01:15:35;20.53;;;10.73;;
20705;SDS011;10514;49.468;11.044;2023-03-01T01:18:01;28.03;;;11.43;;
20705;SDS011;10514;49.468;11.044;2023-03-01T01:20:27;19.47;;;10.17;;
20705;SDS011;10514;49.468;11.044;2023-03-01T01:22:53;16.93;;;9.87;;
20705;SDS011;10514;49.468;11.044;2023-03-01T01:25:18;20.20;;;10.60;;
20705;SDS011;10514;49.468;11.044;2023-03-01T01:27:44;21.10;;;11.17;;
20705;SDS011;10514;49.468;11.044;2023-03-01T01:30:10;23.20;;;11.63;;
20705;SDS011;10514;49.468;11.044;2023-03-01T01:32:36;20.27;;;11.37;;
20705;SDS011;10514;49.468;11.044;2023-03-01T01:35:03;22.33;;;11.00;;
20705;SDS011;10514;49.468;11.044;2023-03-01T01:37:29;22.87;;;10.37;;
20705;SDS011;10514;49.468;11.044;2023-03-01T01:39:59;20.33;;;10.50;;
20705;SDS011;10514;49.468;11.044;2023-03-01T01:42:28;17.83;;;10.13;;
20705;SDS011;10514;49.468;11.044;2023-03-01T01:47:39;18.97;;;9.97;;
20705;SDS011;10514;49.468;11.044;2023-03-01T01:50:05;21.60;;;10.50;;
20705;SDS011;10514;49.468;11.044;2023-03-01T01:52:35;18.17;;;10.43;;
20705;SDS011;10514;49.468;11.044;2023-03-01T01:55:05;19.10;;;9.33;;
20705;SDS011;10514;49.468;11.044;2023-03-01T01:57:33;20.47;;;10.53;;
20705;SDS011;10514;49.468;11.044;2023-03-01T02:00:04;24.40;;;11.83;;
20705;SDS011;10514;49.468;11.044;2023-03-01T02:02:30;31.47;;;12.00;;
20705;SDS011;10514;49.468;11.044;2023-03-01T02:05:04;21.37;;;12.33;;
20705;SDS011;10514;49.468;11.044;2023-03-01T02:07:35;20.40;;;11.63;;
20705;SDS011;10514;49.468;11.044;2023-03-01T02:10:02;23.67;;;11.40;;
20705;SDS011;10514;49.468;11.044;2023-03-01T02:12:28;18.07;;;10.67;;
20705;SDS011;10514;49.468;11.044;2023-03-01T02:14:54;20.60;;;10.77;;
20705;SDS011;10514;49.468;11.044;2023-03-01T02:17:20;22.27;;;10.87;;
20705;SDS011;10514;49.468;11.044;2023-03-01T02:22:24;18.50;;;11.07;;
20705;SDS011;10514;49.468;11.044;2023-03-01T02:24:57;23.37;;;12.23;;
20705;SDS011;10514;49.468;11.044;2023-03-01T02:27:28;19.73;;;11.17;;
20705;SDS011;10514;49.468;11.044;2023-03-01T02:29:56;24.83;;;12.33;;
20705;SDS011;10514;49.468;11.044;2023-03-01T02:32:22;21.40;;;11.17;;
20705;SDS011;10514;49.468;11.044;2023-03-01T02:34:51;22.20;;;12.00;;
20705;SDS011;10514;49.468;11.044;2023-03-01T02:37:18;23.03;;;11.07;;
20705;SDS011;10514;49.468;11.044;2023-03-01T02:39:50;23.10;;;12.23;;
20705;SDS011;10514;49.468;11.044;2023-03-01T02:42:21;23.80;;;12.40;;
20705;SDS011;10514;49.468;11.044;2023-03-01T02:44:49;19.60;;;10.80;;
20705;SDS011;10514;49.468;11.044;2023-03-01T02:47:15;18.50;;;10.87;;
20705;SDS011;10514;49.468;11.044;2023-03-01T02:49:41;20.97;;;10.67;;
20705;SDS011;10514;49.468;11.044;2023-03-01T02:52:11;20.20;;;10.90;;
20705;SDS011;10514;49.468;11.044;2023-03-01T02:54:59;22.70;;;11.07;;
20705;SDS011;10514;49.468;11.044;2023-03-01T02:57:37;27.00;;;11.77;;
20705;SDS011;10514;49.468;11.044;2023-03-01T03:00:08;20.13;;;11.83;;
20705;SDS011;10514;49.468;11.044;2023-03-01T03:02:44;15.63;;;10.10;;
20705;SDS011;10514;49.468;11.044;2023-03-01T03:05:14;20.97;;;10.57;;
20705;SDS011;10514;49.468;11.044;2023-03-01T03:07:43;26.13;;;11.07;;
20705;SDS011;10514;49.468;11.044;2023-03-01T03:10:14;17.30;;;9.80;;
20705;SDS011;10514;49.468;11.044;2023-03-01T03:12:40;16.17;;;9.33;;
20705;SDS011;10514;49.468;11.044;2023-03-01T03:15:07;18.27;;;9.77;;
20705;SDS011;10514;49.468;11.044;2023-03-01T03:17:37;16.17;;;9.73;;
20705;SDS011;10514;49.468;11.044;2023-03-01T03:20:05;19.17;;;9.90;;
20705;SDS011;10514;49.468;11.044;2023-03-01T03:22:31;23.37;;;10.97;;
20705;SDS011;10514;49.468;11.044;2023-03-01T03:24:58;19.03;;;9.70;;
20705;SDS011;10514;49.468;11.044;2023-03-01T03:27:24;18.33;;;9.40;;
20705;SDS011;10514;49.468;11.044;2023-03-01T03:29:50;19.23;;;10.23;;
20705;SDS011;10514;49.468;11.044;2023-03-01T03:32:16;19.00;;;9.37;;
20705;SDS011;10514;49.468;11.044;2023-03-01T03:34:42;16.17;;;9.30;;
20705;SDS011;10514;49.468;11.044;2023-03-01T03:37:08;17.67;;;10.13;;
20705;SDS011;10514;49.468;11.044;2023-03-01T03:39:54;19.97;;;9.50;;
20705;SDS011;10514;49.468;11.044;2023-03-01T03:42:21;17.33;;;9.90;;
20705;SDS011;10514;49.468;11.044;2023-03-01T03:44:47;18.67;;;10.20;;
20705;SDS011;10514;49.468;11.044;2023-03-01T03:47:13;17.70;;;9.50;;
20705;SDS011;10514;49.468;11.044;2023-03-01T03:49:39;16.83;;;9.53;;
20705;SDS011;10514;49.468;11.044;2023-03-01T03:52:05;15.30;;;9.50;;
20705;SDS011;10514;49.468;11.044;2023-03-01T03:54:38;17.50;;;8.83;;
20705;SDS011;10514;49.468;11.044;2023-03-01T03:57:04;17.23;;;8.93;;
20705;SDS011;10514;49.468;11.044;2023-03-01T03:59:30;24.17;;;9.83;;
20705;SDS011;10514;49.468;11.044;2023-03-01T04:01:56;19.27;;;8.90;;
20705;SDS011;10514;49.468;11.044;2023-03-01T04:04:22;21.07;;;9.63;;
20705;SDS011;10514;49.468;11.044;2023-03-01T04:06:47;18.33;;;9.53;;
20705;SDS011;10514;49.468;11.044;2023-03-01T04:09:13;17.77;;;9.00;;
20705;SDS011;10514;49.468;11.044;2023-03-01T04:11:39;18.13;;;9.20;;
20705;SDS011;10514;49.468;11.044;2023-03-01T04:14:05;18.13;;;9.50;;
20705;SDS011;10514;49.468;11.044;2023-03-01T04:16:31;16.77;;;9.63;;
20705;SDS011;10514;49.468;11.044;2023-03-01T04:18:57;16.40;;;9.90;;
20705;SDS011;10514;49.468;11.044;2023-03-01T04:21:24;15.73;;;9.03;;
20705;SDS011;10514;49.468;11.044;2023-03-01T04:23:50;18.00;;;9.57;;
20705;SDS011;10514;49.468;11.044;2023-03-01T04:26:17;15.53;;;9.70;;
20705;SDS011;10514;49.468;11.044;2023-03-01T04:28:43;18.83;;;9.93;;
20705;SDS011;10514;49.468;11.044;2023-03-01T04:31:14;18.50;;;9.27;;
20705;SDS011;10514;49.468;11.044;2023-03-01T04:33:46;18.30;;;9.50;;
20705;SDS011;10514;49.468;11.044;2023-03-01T04:36:14;18.63;;;9.67;;
20705;SDS011;10514;49.468;11.044;2023-03-01T04:38:41;17.40;;;10.70;;
20705;SDS011;10514;49.468;11.044;2023-03-01T04:41:08;14.77;;;8.63;;
20705;SDS011;10514;49.468;11.044;2023-03-01T04:43:35;26.20;;;11.67;;
20705;SDS011;10514;49.468;11.044;2023-03-01T04:46:02;19.00;;;9.93;;
20705;SDS011;10514;49.468;11.044;2023-03-01T04:48:31;22.80;;;10.47;;
20705;SDS011;10514;49.468;11.044;2023-03-01T04:50:58;16.07;;;9.90;;
20705;SDS011;10514;49.468;11.044;2023-03-01T04:53:24;17.80;;;9.67;;
20705;SDS011;10514;49.468;11.044;2023-03-01T04:55:50;20.60;;;8.83;;
20705;SDS011;10514;49.468;11.044;2023-03-01T04:58:16;14.70;;;9.47;;
20705;SDS011;10514;49.468;11.044;2023-03-01T05:00:42;18.47;;;9.53;;
20705;SDS011;10514;49.468;11.044;2023-03-01T05:03:08;19.77;;;10.87;;
20705;SDS011;10514;49.468;11.044;2023-03-01T05:05:35;20.67;;;9.97;;
20705;SDS011;10514;49.468;11.044;2023-03-01T05:08:03;16.00;;;9.27;;
20705;SDS011;10514;49.468;11.044;2023-03-01T05:10:30;18.93;;;9.23;;
20705;SDS011;10514;49.468;11.044;2023-03-01T05:12:56;17.83;;;10.10;;
20705;SDS011;10514;49.468;11.044;2023-03-01T05:15:23;17.47;;;9.80;;
20705;SDS011;10514;49.468;11.044;2023-03-01T05:17:52;14.93;;;8.63;;
20705;SDS011;10514;49.468;11.044;2023-03-01T05:20:19;18.30;;;9.93;;
20705;SDS011;10514;49.468;11.044;2023-03-01T05:22:47;20.23;;;9.83;;
20705;SDS011;10514;49.468;11.044;2023-03-01T05:25:13;20.43;;;9.60;;
20705;SDS011;10514;49.468;11.044;2023-03-01T05:27:39;17.80;;;9.93;;
20705;SDS011;10514;49.468;11.044;2023-03-01T05:30:05;19.87;;;10.03;;
20705;SDS011;10514;49.468;11.044;2023-03-01T05:32:38;16.80;;;10.20;;
20705;SDS011;10514;49.468;11.044;2023-03-01T05:35:04;13.93;;;9.17;;
20705;SDS011;10514;49.468;11.044;2023-03-01T05:37:30;18.67;;;10.40;;
20705;SDS011;10514;49.468;11.044;2023-03-01T05:39:56;17.83;;;10.07;;
20705;SDS011;10514;49.468;11.044;2023-03-01T05:42:22;17.57;;;9.80;;
20705;SDS011;10514;49.468;11.044;2023-03-01T05:44:48;24.17;;;9.63;;
20705;SDS011;10514;49.468;11.044;2023-03-01T05:47:14;22.63;;;10.10;;
20705;SDS011;10514;49.468;11.044;2023-03-01T05:49:40;18.90;;;10.23;;
20705;SDS011;10514;49.468;11.044;2023-03-01T05:52:06;21.77;;;10.17;;
20705;SDS011;10514;49.468;11.044;2023-03-01T05:54:32;20.13;;;11.00;;
20705;SDS011;10514;49.468;11.044;2023-03-01T05:56:58;21.17;;;11.87;;
20705;SDS011;10514;49.468;11.044;2023-03-01T05:59:24;19.53;;;9.70;;
20705;SDS011;10514;49.468;11.044;2023-03-01T06:01:50;20.07;;;10.37;;
20705;SDS011;10514;49.468;11.044;2023-03-01T06:04:16;22.47;;;11.93;;
20705;SDS011;10514;49.468;11.044;2023-03-01T06:06:41;24.73;;;12.03;;
20705;SDS011;10514;49.468;11.044;2023-03-01T06:09:07;21.43;;;11.10;;
20705;SDS011;10514;49.468;11.044;2023-03-01T06:11:35;20.03;;;10.60;;
20705;SDS011;10514;49.468;11.044;2023-03-01T06:14:01;26.63;;;11.03;;
20705;SDS011;10514;49.468;11.044;2023-03-01T06:16:27;16.93;;;10.13;;
20705;SDS011;10514;49.468;11.044;2023-03-01T06:18:53;19.37;;;10.33;;
20705;SDS011;10514;49.468;11.044;2023-03-01T06:21:19;18.43;;;9.47;;
20705;SDS011;10514;49.468;11.044;2023-03-01T06:23:45;18.77;;;10.53;;
20705;SDS011;10514;49.468;11.044;2023-03-01T06:26:11;20.07;;;11.20;;
20705;SDS011;10514;49.468;11.044;2023-03-01T06:28:37;21.47;;;11.63;;
20705;SDS011;10514;49.468;11.044;2023-03-01T06:31:03;22.53;;;10.37;;
20705;SDS011;10514;49.468;11.044;2023-03-01T06:33:29;16.37;;;9.83;;
20705;SDS011;10514;49.468;11.044;2023-03-01T06:35:55;21.33;;;11.20;;
20705;SDS011;10514;49.468;11.044;2023-03-01T06:38:21;19.30;;;10.00;;
20705;SDS011;10514;49.468;11.044;2023-03-01T06:40:53;22.03;;;11.53;;
20705;SDS011;10514;49.468;11.044;2023-03-01T06:43:21;21.90;;;10.97;;
20705;SDS011;10514;49.468;11.044;2023-03-01T06:45:48;18.07;;;10.53;;
20705;SDS011;10514;49.468;11.044;2023-03-01T06:48:14;22.60;;;10.50;;
20705;SDS011;10514;49.468;11.044;2023-03-01T06:50:40;19.50;;;10.40;;
20705;SDS011;10514;49.468;11.044;2023-03-01T06:53:06;19.03;;;10.53;;
20705;SDS011;10514;49.468;11.044;2023-03-01T06:55:32;20.67;;;11.70;;
20705;SDS011;10514;49.468;11.044;2023-03-01T06:57:58;22.33;;;10.53;;
20705;SDS011;10514;49.468;11.044;2023-03-01T07:00:25;24.23;;;13.37;;
20705;SDS011;10514;49.468;11.044;2023-03-01T07:02:51;20.87;;;10.60;;
20705;SDS011;10514;49.468;11.044;2023-03-01T07:05:17;20.53;;;11.30;;
20705;SDS011;10514;49.468;11.044;2023-03-01T07:07:43;24.87;;;15.70;;
20705;SDS011;10514;49.468;11.044;2023-03-01T07:10:09;22.97;;;13.00;;
20705;SDS011;10514;49.468;11.044;2023-03-01T07:12:35;23.27;;;12.53;;
20705;SDS011;10514;49.468;11.044;2023-03-01T07:15:01;19.27;;;11.57;;
20705;SDS011;10514;49.468;11.044;2023-03-01T07:17:27;24.77;;;12.40;;
20705;SDS011;10514;49.468;11.044;2023-03-01T07:19:53;25.57;;;12.87;;
20705;SDS011;10514;49.468;11.044;2023-03-01T07:22:19;22.67;;;12.57;;
20705;SDS011;10514;49.468;11.044;2023-03-01T07:24:45;23.23;;;12.87;;
20705;SDS011;10514;49.468;11.044;2023-03-01T07:27:11;22.73;;;12.43;;
20705;SDS011;10514;49.468;11.044;2023-03-01T07:29:37;28.03;;;12.73;;
20705;SDS011;10514;49.468;11.044;2023-03-01T07:32:03;26.53;;;13.60;;
20705;SDS011;10514;49.468;11.044;2023-03-01T07:34:29;23.70;;;13.23;;
20705;SDS011;10514;49.468;11.044;2023-03-01T07:36:55;22.93;;;11.47;;
20705;SDS011;10514;49.468;11.044;2023-03-01T07:39:21;26.30;;;13.83;;
20705;SDS011;10514;49.468;11.044;2023-03-01T07:41:50;20.70;;;11.80;;
20705;SDS011;10514;49.468;11.044;2023-03-01T07:44:16;26.00;;;12.20;;
20705;SDS011;10514;49.468;11.044;2023-03-01T07:46:43;20.63;;;12.03;;
20705;SDS011;10514;49.468;11.044;2023-03-01T07:49:09;21.57;;;12.37;;
20705;SDS011;10514;49.468;11.044;2023-03-01T07:51:35;24.30;;;13.13;;
20705;SDS011;10514;49.468;11.044;2023-03-01T07:54:01;22.03;;;12.63;;
20705;SDS011;10514;49.468;11.044;2023-03-01T07:56:27;25.23;;;12.67;;
20705;SDS011;10514;49.468;11.044;2023-03-01T07:58:53;32.87;;;12.47;;
20705;SDS011;10514;49.468;11.044;2023-03-01T08:01:20;22.77;;;13.23;;
20705;SDS011;10514;49.468;11.044;2023-03-01T08:03:46;28.73;;;14.77;;
20705;SDS011;10514;49.468;11.044;2023-03-01T08:06:13;25.27;;;13.07;;
20705;SDS011;10514;49.468;11.044;2023-03-01T08:08:39;21.87;;;12.87;;
20705;SDS011;10514;49.468;11.044;2023-03-01T08:11:06;22.23;;;13.17;;
20705;SDS011;10514;49.468;11.044;2023-03-01T08:13:32;24.37;;;13.80;;
20705;SDS011;10514;49.468;11.044;2023-03-01T08:16:06;20.57;;;12.73;;
20705;SDS011;10514;49.468;11.044;2023-03-01T08:18:32;20.30;;;12.53;;
20705;SDS011;10514;49.468;11.044;2023-03-01T08:21:02;24.40;;;12.57;;
20705;SDS011;10514;49.468;11.044;2023-03-01T08:23:28;18.70;;;11.43;;
20705;SDS011;10514;49.468;11.044;2023-03-01T08:25:54;19.63;;;12.73;;
20705;SDS011;10514;49.468;11.044;2023-03-01T08:28:27;20.50;;;12.97;;
20705;SDS011;10514;49.468;11.044;2023-03-01T08:30:53;22.17;;;12.83;;
20705;SDS011;10514;49.468;11.044;2023-03-01T08:33:19;22.90;;;13.13;;
20705;SDS011;10514;49.468;11.044;2023-03-01T08:35:45;17.83;;;11.73;;
20705;SDS011;10514;49.468;11.044;2023-03-01T08:38:11;19.57;;;12.67;;
20705;SDS011;10514;49.468;11.044;2023-03-01T08:40:37;20.40;;;12.20;;
20705;SDS011;10514;49.468;11.044;2023-03-01T08:43:03;27.40;;;14.23;;
20705;SDS011;10514;49.468;11.044;2023-03-01T08:45:28;19.83;;;12.00;;
20705;SDS011;10514;49.468;11.044;2023-03-01T08:47:54;20.70;;;12.55;;
20705;SDS011;10514;49.468;11.044;2023-03-01T08:50:20;19.67;;;12.80;;
20705;SDS011;10514;49.468;11.044;2023-03-01T08:52:46;19.20;;;13.30;;
20705;SDS011;10514;49.468;11.044;2023-03-01T08:55:12;22.00;;;12.50;;
20705;SDS011;10514;49.468;11.044;2023-03-01T08:57:39;19.80;;;12.57;;
20705;SDS011;10514;49.468;11.044;2023-03-01T09:00:05;23.02;;;13.40;;
20705;SDS011;10514;49.468;11.044;2023-03-01T09:02:33;22.13;;;13.98;;
20705;SDS011;10514;49.468;11.044;2023-03-01T09:05:00;23.08;;;13.13;;
20705;SDS011;10514;49.468;11.044;2023-03-01T09:07:26;19.73;;;13.63;;
20705;SDS011;10514;49.468;11.044;2023-03-01T09:09:55;18.40;;;12.43;;
20705;SDS011;10514;49.468;11.044;2023-03-01T09:12:21;17.77;;;11.70;;
20705;SDS011;10514;49.468;11.044;2023-03-01T09:14:47;22.23;;;13.65;;
20705;SDS011;10514;49.468;11.044;2023-03-01T09:17:13;20.02;;;11.75;;
20705;SDS011;10514;49.468;11.044;2023-03-01T09:19:39;20.65;;;13.93;;
20705;SDS011;10514;49.468;11.044;2023-03-01T09:22:05;20.83;;;12.27;;
20705;SDS011;10514;49.468;11.044;2023-03-01T09:24:31;18.85;;;12.30;;
20705;SDS011;10514;49.468;11.044;2023-03-01T09:26:57;19.63;;;12.25;;
20705;SDS011;10514;49.468;11.044;2023-03-01T09:29:23;19.58;;;12.43;;
20705;SDS011;10514;49.468;11.044;2023-03-01T09:31:49;18.90;;;12.17;;
20705;SDS011;10514;49.468;11.044;2023-03-01T09:34:15;19.10;;;12.45;;
20705;SDS011;10514;49.468;11.044;2023-03-01T09:36:44;17.70;;;11.10;;
20705;SDS011;10514;49.468;11.044;2023-03-01T09:39:10;18.48;;;11.13;;
20705;SDS011;10514;49.468;11.044;2023-03-01T09:41:38;20.10;;;12.85;;
20705;SDS011;10514;49.468;11.044;2023-03-01T09:44:11;19.70;;;12.40;;
20705;SDS011;10514;49.468;11.044;2023-03-01T09:46:41;20.27;;;12.82;;
20705;SDS011;10514;49.468;11.044;2023-03-01T09:49:14;18.42;;;12.25;;
20705;SDS011;10514;49.468;11.044;2023-03-01T09:51:42;19.98;;;12.80;;
20705;SDS011;10514;49.468;11.044;2023-03-01T09:54:09;18.00;;;11.82;;
20705;SDS011;10514;49.468;11.044;2023-03-01T09:56:40;17.70;;;11.55;;
20705;SDS011;10514;49.468;11.044;2023-03-01T10:02:01;18.17;;;12.02;;
20705;SDS011;10514;49.468;11.044;2023-03-01T10:07:17;19.42;;;12.20;;
20705;SDS011;10514;49.468;11.044;2023-03-01T10:09:42;22.08;;;12.65;;
20705;SDS011;10514;49.468;11.044;2023-03-01T10:12:11;20.40;;;11.95;;
20705;SDS011;10514;49.468;11.044;2023-03-01T10:14:39;19.95;;;11.70;;
20705;SDS011;10514;49.468;11.044;2023-03-01T10:19:44;19.23;;;12.05;;
20705;SDS011;10514;49.468;11.044;2023-03-01T10:24:39;15.30;;;10.68;;
20705;SDS011;10514;49.468;11.044;2023-03-01T10:27:22;20.10;;;12.30;;
20705;SDS011;10514;49.468;11.044;2023-03-01T10:29:55;19.80;;;12.40;;
20705;SDS011;10514;49.468;11.044;2023-03-01T10:32:24;19.17;;;12.07;;
20705;SDS011;10514;49.468;11.044;2023-03-01T10:34:50;20.55;;;11.07;;
20705;SDS011;10514;49.468;11.044;2023-03-01T10:37:17;20.73;;;14.30;;
20705;SDS011;10514;49.468;11.044;2023-03-01T10:40:00;18.33;;;11.55;;
20705;SDS011;10514;49.468;11.044;2023-03-01T10:42:35;21.60;;;12.52;;
20705;SDS011;10514;49.468;11.044;2023-03-01T10:45:15;21.77;;;12.60;;
20705;SDS011;10514;49.468;11.044;2023-03-01T10:47:42;19.70;;;12.38;;
20705;SDS011;10514;49.468;11.044;2023-03-01T10:50:17;21.20;;;12.27;;
20705;SDS011;10514;49.468;11.044;2023-03-01T10:52:44;20.60;;;11.33;;
20705;SDS011;10514;49.468;11.044;2023-03-01T10:55:34;23.95;;;12.43;;
20705;SDS011;10514;49.468;11.044;2023-03-01T10:58:22;20.40;;;11.53;;
20705;SDS011;10514;49.468;11.044;2023-03-01T11:00:51;22.23;;;11.37;;
20705;SDS011;10514;49.468;11.044;2023-03-01T11:03:42;22.13;;;11.80;;
20705;SDS011;10514;49.468;11.044;2023-03-01T11:08:41;21.77;;;12.20;;
20705;SDS011;10514;49.468;11.044;2023-03-01T11:11:24;18.30;;;10.87;;
20705;SDS011;10514;49.468;11.044;2023-03-01T11:13:55;16.60;;;10.20;;
20705;SDS011;10514;49.468;11.044;2023-03-01T11:16:23;19.37;;;12.17;;
20705;SDS011;10514;49.468;11.044;2023-03-01T11:18:56;22.73;;;12.00;;
20705;SDS011;10514;49.468;11.044;2023-03-01T11:21:23;20.73;;;11.70;;
20705;SDS011;10514;49.468;11.044;2023-03-01T11:23:49;21.73;;;13.10;;
20705;SDS011;10514;49.468;11.044;2023-03-01T11:26:16;19.47;;;11.47;;
20705;SDS011;10514;49.468;11.044;2023-03-01T11:28:43;21.93;;;13.20;;
20705;SDS011;10514;49.468;11.044;2023-03-01T11:31:15;20.53;;;11.83;;
20705;SDS011;10514;49.468;11.044;2023-03-01T11:38:55;21.97;;;12.57;;
20705;SDS011;10514;49.468;11.044;2023-03-01T11:41:28;16.73;;;10.27;;
20705;SDS011;10514;49.468;11.044;2023-03-01T11:43:59;18.60;;;10.30;;
20705;SDS011;10514;49.468;11.044;2023-03-01T11:49:14;18.87;;;10.63;;
20705;SDS011;10514;49.468;11.044;2023-03-01T11:51:48;18.60;;;9.87;;
20705;SDS011;10514;49.468;11.044;2023-03-01T11:54:25;17.07;;;10.83;;
20705;SDS011;10514;49.468;11.044;2023-03-01T12:02:29;17.13;;;10.20;;
20705;SDS011;10514;49.468;11.044;2023-03-01T12:10:31;17.17;;;8.40;;
20705;SDS011;10514;49.468;11.044;2023-03-01T12:13:17;15.13;;;8.40;;
20705;SDS011;10514;49.468;11.044;2023-03-01T12:16:01;17.60;;;9.63;;
20705;SDS011;10514;49.468;11.044;2023-03-01T12:18:46;17.87;;;10.43;;
20705;SDS011;10514;49.468;11.044;2023-03-01T12:26:33;15.97;;;9.37;;
20705;SDS011;10514;49.468;11.044;2023-03-01T12:29:02;17.13;;;9.80;;
20705;SDS011;10514;49.468;11.044;2023-03-01T12:34:41;15.23;;;9.17;;
20705;SDS011;10514;49.468;11.044;2023-03-01T12:37:18;16.03;;;9.57;;
20705;SDS011;10514;49.468;11.044;2023-03-01T12:40:09;18.77;;;9.37;;
20705;SDS011;10514;49.468;11.044;2023-03-01T12:45:44;14.57;;;9.20;;
20705;SDS011;10514;49.468;11.044;2023-03-01T12:50:57;17.10;;;10.00;;
20705;SDS011;10514;49.468;11.044;2023-03-01T12:53:26;17.63;;;9.53;;
20705;SDS011;10514;49.468;11.044;2023-03-01T12:55:53;16.77;;;9.43;;
20705;SDS011;10514;49.468;11.044;2023-03-01T12:58:31;17.93;;;9.37;;
20705;SDS011;10514;49.468;11.044;2023-03-01T13:08:57;16.87;;;9.13;;
20705;SDS011;10514;49.468;11.044;2023-03-01T13:11:25;18.90;;;9.03;;
20705;SDS011;10514;49.468;11.044;2023-03-01T13:13:52;20.30;;;9.70;;
20705;SDS011;10514;49.468;11.044;2023-03-01T13:21:32;14.20;;;8.07;;
20705;SDS011;10514;49.468;11.044;2023-03-01T13:23:58;13.60;;;9.17;;
20705;SDS011;10514;49.468;11.044;2023-03-01T13:26:24;17.43;;;8.93;;
20705;SDS011;10514;49.468;11.044;2023-03-01T13:28:51;13.77;;;8.80;;
20705;SDS011;10514;49.468;11.044;2023-03-01T13:33:47;15.70;;;9.63;;
20705;SDS011;10514;49.468;11.044;2023-03-01T13:38:55;13.80;;;8.50;;
20705;SDS011;10514;49.468;11.044;2023-03-01T13:44:20;14.00;;;8.27;;
20705;SDS011;10514;49.468;11.044;2023-03-01T13:46:47;16.40;;;9.55;;
20705;SDS011;10514;49.468;11.044;2023-03-01T13:49:16;16.97;;;8.73;;
20705;SDS011;10514;49.468;11.044;2023-03-01T13:51:46;16.77;;;8.40;;
20705;SDS011;10514;49.468;11.044;2023-03-01T13:54:12;15.60;;;8.40;;
20705;SDS011;10514;49.468;11.044;2023-03-01T13:56:40;18.67;;;8.93;;
20705;SDS011;10514;49.468;11.044;2023-03-01T13:59:13;13.93;;;8.67;;
20705;SDS011;10514;49.468;11.044;2023-03-01T14:01:40;14.48;;;9.07;;
20705;SDS011;10514;49.468;11.044;2023-03-01T14:06:45;14.40;;;8.80;;
20705;SDS011;10514;49.468;11.044;2023-03-01T14:09:15;15.40;;;9.30;;
20705;SDS011;10514;49.468;11.044;2023-03-01T14:12:02;16.05;;;9.77;;
20705;SDS011;10514;49.468;11.044;2023-03-01T14:17:23;15.40;;;10.13;;
20705;SDS011;10514;49.468;11.044;2023-03-01T14:19:55;15.07;;;9.02;;
20705;SDS011;10514;49.468;11.044;2023-03-01T14:22:22;19.52;;;9.18;;
20705;SDS011;10514;49.468;11.044;2023-03-01T14:24:52;14.83;;;8.90;;
20705;SDS011;10514;49.468;11.044;2023-03-01T14:27:19;15.77;;;9.75;;
20705;SDS011;10514;49.468;11.044;2023-03-01T14:29:59;19.63;;;9.57;;
20705;SDS011;10514;49.468;11.044;2023-03-01T14:32:26;15.93;;;9.70;;
20705;SDS011;10514;49.468;11.044;2023-03-01T14:34:52;12.38;;;8.38;;
20705;SDS011;10514;49.468;11.044;2023-03-01T14:37:24;15.57;;;8.87;;
20705;SDS011;10514;49.468;11.044;2023-03-01T14:39:50;17.83;;;9.13;;
20705;SDS011;10514;49.468;11.044;2023-03-01T14:42:16;13.53;;;9.07;;
20705;SDS011;10514;49.468;11.044;2023-03-01T14:44:43;12.67;;;9.10;;
20705;SDS011;10514;49.468;11.044;2023-03-01T14:47:23;17.03;;;10.67;;
20705;SDS011;10514;49.468;11.044;2023-03-01T14:49:53;21.27;;;8.95;;
20705;SDS011;10514;49.468;11.044;2023-03-01T14:52:22;14.57;;;9.03;;
20705;SDS011;10514;49.468;11.044;2023-03-01T14:54:53;17.80;;;9.47;;
20705;SDS011;10514;49.468;11.044;2023-03-01T14:57:24;14.90;;;9.80;;
20705;SDS011;10514;49.468;11.044;2023-03-01T14:59:51;16.23;;;9.03;;
20705;SDS011;10514;49.468;11.044;2023-03-01T15:02:19;14.40;;;9.50;;
20705;SDS011;10514;49.468;11.044;2023-03-01T15:04:47;19.87;;;9.77;;
20705;SDS011;10514;49.468;11.044;2023-03-01T15:07:18;21.67;;;9.20;;
20705;SDS011;10514;49.468;11.044;2023-03-01T15:09:44;19.00;;;8.50;;
20705;SDS011;10514;49.468;11.044;2023-03-01T15:14:56;13.40;;;9.00;;
20705;SDS011;10514;49.468;11.044;2023-03-01T15:17:35;18.17;;;9.37;;
20705;SDS011;10514;49.468;11.044;2023-03-01T15:20:03;15.70;;;8.70;;
20705;SDS011;10514;49.468;11.044;2023-03-01T15:22:30;18.17;;;9.13;;
20705;SDS011;10514;49.468;11.044;2023-03-01T15:24:56;17.60;;;8.63;;
20705;SDS011;10514;49.468;11.044;2023-03-01T15:27:23;14.80;;;8.67;;
20705;SDS011;10514;49.468;11.044;2023-03-01T15:29:53;12.93;;;8.10;;
20705;SDS011;10514;49.468;11.044;2023-03-01T15:34:49;14.47;;;8.27;;
20705;SDS011;10514;49.468;11.044;2023-03-01T15:40:00;12.67;;;8.23;;
20705;SDS011;10514;49.468;11.044;2023-03-01T15:45:08;14.60;;;8.80;;
20705;SDS011;10514;49.468;11.044;2023-03-01T15:47:34;15.97;;;7.73;;
20705;SDS011;10514;49.468;11.044;2023-03-01T15:50:02;13.43;;;7.90;;